createdAt,value
2022-08-20T00:01:06.191Z,15.48
2022-08-20T00:03:37.279Z,15.51
2022-08-20T00:06:11.288Z,15.48
2022-08-20T00:08:38.640Z,15.45
2022-08-20T00:11:08.248Z,15.42
2022-08-20T00:13:40.687Z,15.45
2022-08-20T00:16:08.298Z,15.43
2022-08-20T00:18:38.193Z,15.40
2022-08-20T00:21:13.291Z,15.38
2022-08-20T00:23:49.293Z,15.36
2022-08-20T00:26:17.649Z,15.33
2022-08-20T00:28:44.707Z,15.33
2022-08-20T00:31:15.311Z,15.34
2022-08-20T00:33:42.268Z,15.37
2022-08-20T00:36:10.936Z,15.36
2022-08-20T00:38:43.705Z,15.36
2022-08-20T00:41:17.989Z,15.33
2022-08-20T00:43:48.657Z,15.30
2022-08-20T00:46:21.867Z,15.30
2022-08-20T00:48:59.873Z,15.29
2022-08-20T00:51:48.042Z,15.32
2022-08-20T00:54:19.900Z,15.30
2022-08-20T00:56:51.155Z,15.28
2022-08-20T00:59:23.132Z,15.25
2022-08-20T01:01:55.107Z,15.27
2022-08-20T01:04:28.141Z,15.24
2022-08-20T01:06:55.864Z,15.23
2022-08-20T01:09:49.921Z,15.22
2022-08-20T01:12:11.132Z,15.21
2022-08-20T01:14:38.029Z,15.21
2022-08-20T01:17:07.924Z,15.22
2022-08-20T01:19:43.277Z,15.18
2022-08-20T01:22:31.881Z,15.19
2022-08-20T01:25:10.112Z,15.19
2022-08-20T01:27:42.618Z,15.18
2022-08-20T01:30:10.447Z,15.17
2022-08-20T01:32:37.388Z,15.17
2022-08-20T01:35:05.712Z,15.14
2022-08-20T01:37:32.560Z,15.13
2022-08-20T01:39:59.695Z,15.12
2022-08-20T01:42:37.678Z,15.14
2022-08-20T01:45:18.498Z,15.10
2022-08-20T01:47:46.202Z,15.10
2022-08-20T01:50:23.701Z,15.11
2022-08-20T01:53:04.433Z,15.08
2022-08-20T01:55:32.496Z,15.08
2022-08-20T01:58:00.915Z,15.06
2022-08-20T02:00:28.345Z,15.06
2022-08-20T02:02:55.269Z,15.03
2022-08-20T02:05:23.939Z,15.02
2022-08-20T02:07:57.817Z,15.01
2022-08-20T02:10:25.111Z,15.00
2022-08-20T02:12:53.108Z,14.96
2022-08-20T02:15:30.763Z,14.95
2022-08-20T02:18:11.134Z,14.92
2022-08-20T02:20:40.547Z,14.94
2022-08-20T02:23:08.636Z,14.93
2022-08-20T02:25:38.332Z,14.93
2022-08-20T02:28:12.095Z,14.91
2022-08-20T02:30:44.173Z,14.87
2022-08-20T02:33:13.719Z,14.88
2022-08-20T02:35:42.931Z,14.88
2022-08-20T02:38:10.940Z,14.88
2022-08-20T02:40:38.261Z,14.86
2022-08-20T02:43:05.732Z,14.85
2022-08-20T02:45:43.674Z,14.83
2022-08-20T02:48:21.421Z,14.85
2022-08-20T02:50:52.013Z,14.84
2022-08-20T02:53:19.614Z,14.84
2022-08-20T02:55:46.697Z,14.84
2022-08-20T02:58:13.784Z,14.80
2022-08-20T03:00:41.082Z,14.75
2022-08-20T03:03:10.528Z,14.81
2022-08-20T03:05:39.919Z,14.82
2022-08-20T03:08:09.147Z,14.80
2022-08-20T03:10:37.329Z,14.79
2022-08-20T03:13:05.306Z,14.77
2022-08-20T03:15:33.967Z,14.79
2022-08-20T03:18:01.084Z,14.75
2022-08-20T03:20:29.289Z,14.73
2022-08-20T03:22:56.460Z,14.73
2022-08-20T03:25:23.767Z,14.75
2022-08-20T03:27:54.732Z,14.75
2022-08-20T03:30:26.132Z,14.74
2022-08-20T03:32:53.353Z,14.71
2022-08-20T03:35:22.849Z,14.72
2022-08-20T03:37:50.326Z,14.68
2022-08-20T03:40:22.001Z,14.65
2022-08-20T03:42:49.380Z,14.67
2022-08-20T03:45:20.374Z,14.68
2022-08-20T03:47:48.683Z,14.68
2022-08-20T03:50:23.499Z,14.65
2022-08-20T03:52:52.258Z,14.63
2022-08-20T03:55:20.203Z,14.67
2022-08-20T03:57:51.994Z,14.66
2022-08-20T04:00:32.691Z,14.65
2022-08-20T04:03:00.892Z,14.67
2022-08-20T04:05:30.089Z,14.66
2022-08-20T04:08:00.130Z,14.68
2022-08-20T04:10:31.069Z,14.66
2022-08-20T04:12:58.191Z,14.64
2022-08-20T04:15:26.962Z,14.65
2022-08-20T04:17:54.283Z,14.65
2022-08-20T04:20:24.161Z,14.66
2022-08-20T04:22:59.467Z,14.63
2022-08-20T04:25:35.781Z,14.63
2022-08-20T04:28:05.796Z,14.62
2022-08-20T04:30:33.450Z,14.63
2022-08-20T04:33:01.120Z,14.59
2022-08-20T04:35:29.546Z,14.62
2022-08-20T04:38:13.857Z,14.59
2022-08-20T04:40:58.813Z,14.57
2022-08-20T04:43:30.084Z,14.56
2022-08-20T04:45:59.444Z,14.58
2022-08-20T04:48:28.759Z,14.60
2022-08-20T04:50:57.364Z,14.58
2022-08-20T04:53:28.078Z,14.57
2022-08-20T04:55:58.744Z,14.57
2022-08-20T04:58:33.867Z,14.57
2022-08-20T05:01:06.531Z,14.59
2022-08-20T05:03:34.119Z,14.59
2022-08-20T05:06:01.850Z,14.65
2022-08-20T05:08:29.828Z,14.60
2022-08-20T05:11:06.804Z,14.60
2022-08-20T05:13:47.176Z,14.59
2022-08-20T05:16:15.201Z,14.57
2022-08-20T05:18:43.325Z,14.57
2022-08-20T05:21:10.356Z,14.57
2022-08-20T05:23:42.951Z,14.55
2022-08-20T05:26:11.328Z,14.57
2022-08-20T05:28:51.274Z,14.56
2022-08-20T05:31:31.575Z,14.56
2022-08-20T05:34:10.804Z,14.55
2022-08-20T05:36:49.310Z,14.55
2022-08-20T05:39:18.424Z,14.57
2022-08-20T05:41:45.495Z,14.55
2022-08-20T05:44:15.539Z,14.57
2022-08-20T05:46:44.644Z,14.55
2022-08-20T05:49:14.279Z,14.53
2022-08-20T05:51:41.676Z,14.51
2022-08-20T05:54:08.654Z,14.50
2022-08-20T05:56:36.154Z,14.52
2022-08-20T05:59:05.922Z,14.52
2022-08-20T06:01:35.286Z,14.50
2022-08-20T06:04:21.892Z,14.48
2022-08-20T06:06:51.812Z,14.53
2022-08-20T06:09:31.820Z,14.55
2022-08-20T06:12:01.466Z,14.56
2022-08-20T06:14:28.408Z,14.54
2022-08-20T06:16:57.787Z,14.53
2022-08-20T06:19:27.208Z,14.53
2022-08-20T06:21:59.864Z,14.57
2022-08-20T06:24:27.059Z,14.54
2022-08-20T06:26:58.706Z,14.57
2022-08-20T06:29:26.169Z,14.59
2022-08-20T06:31:53.464Z,14.56
2022-08-20T06:34:20.505Z,14.58
2022-08-20T06:36:47.748Z,14.56
2022-08-20T06:39:16.094Z,14.58
2022-08-20T06:41:43.028Z,14.62
2022-08-20T06:44:10.351Z,14.60
2022-08-20T06:46:38.112Z,14.62
2022-08-20T06:49:06.620Z,14.60
2022-08-20T06:51:34.400Z,14.63
2022-08-20T06:54:01.434Z,14.62
2022-08-20T06:56:28.345Z,14.65
2022-08-20T06:58:55.310Z,14.65
2022-08-20T07:01:22.338Z,14.64
2022-08-20T07:03:54.192Z,14.65
2022-08-20T07:06:22.216Z,14.70
2022-08-20T07:08:49.267Z,14.68
2022-08-20T07:11:16.306Z,14.66
2022-08-20T07:13:43.216Z,14.65
2022-08-20T07:16:10.146Z,14.65
2022-08-20T07:18:37.006Z,14.67
2022-08-20T07:21:04.125Z,14.68
2022-08-20T07:23:31.762Z,14.69
2022-08-20T07:25:58.983Z,14.68
2022-08-20T07:28:29.000Z,14.68
2022-08-20T07:31:16.031Z,14.69
2022-08-20T07:33:44.495Z,14.69
2022-08-20T07:36:12.820Z,14.70
2022-08-20T07:38:40.176Z,14.71
2022-08-20T07:41:10.057Z,14.70
2022-08-20T07:43:37.081Z,14.71
2022-08-20T07:46:09.271Z,14.72
2022-08-20T07:48:41.999Z,14.72
2022-08-20T07:51:11.002Z,14.77
2022-08-20T07:53:39.181Z,14.79
2022-08-20T07:56:10.225Z,14.74
2022-08-20T07:58:43.964Z,14.78
2022-08-20T08:01:11.800Z,14.78
2022-08-20T08:03:49.215Z,14.79
2022-08-20T08:06:29.242Z,14.80
2022-08-20T08:09:14.756Z,14.82
2022-08-20T08:11:47.459Z,14.81
2022-08-20T08:14:17.096Z,14.84
2022-08-20T08:16:45.562Z,14.86
2022-08-20T08:19:16.159Z,14.85
2022-08-20T08:21:44.302Z,14.87
2022-08-20T08:24:14.361Z,14.89
2022-08-20T08:26:44.391Z,14.91
2022-08-20T08:29:12.135Z,14.92
2022-08-20T08:31:41.006Z,14.94
2022-08-20T08:34:08.546Z,14.91
2022-08-20T08:36:35.534Z,14.97
2022-08-20T08:39:02.424Z,14.99
2022-08-20T08:41:35.820Z,15.01
2022-08-20T08:44:23.587Z,15.02
2022-08-20T08:47:13.783Z,15.04
2022-08-20T08:49:40.810Z,15.03
2022-08-20T08:52:14.752Z,15.06
2022-08-20T08:54:48.986Z,15.08
2022-08-20T08:57:16.844Z,15.12
2022-08-20T08:59:52.118Z,15.12
2022-08-20T09:02:33.460Z,15.16
2022-08-20T09:05:04.488Z,15.16
2022-08-20T09:07:33.551Z,15.16
2022-08-20T09:10:02.417Z,15.21
2022-08-20T09:12:29.339Z,15.21
2022-08-20T09:14:56.321Z,15.24
2022-08-20T09:17:23.879Z,15.26
2022-08-20T09:19:52.376Z,15.29
2022-08-20T09:22:22.212Z,15.31
2022-08-20T09:24:50.018Z,15.36
2022-08-20T09:27:17.065Z,15.36
2022-08-20T09:29:44.280Z,15.34
2022-08-20T09:32:17.725Z,15.33
2022-08-20T09:34:47.822Z,15.33
2022-08-20T09:37:15.719Z,15.33
2022-08-20T09:39:43.465Z,15.37
2022-08-20T09:42:13.634Z,15.37
2022-08-20T09:44:41.083Z,15.40
2022-08-20T09:47:08.068Z,15.39
2022-08-20T09:49:36.824Z,15.42
2022-08-20T09:52:06.742Z,15.43
2022-08-20T09:54:34.697Z,15.46
2022-08-20T09:57:04.677Z,15.48
2022-08-20T09:59:34.413Z,15.51
2022-08-20T10:02:01.385Z,15.52
2022-08-20T10:04:28.595Z,15.53
2022-08-20T10:06:56.926Z,15.54
2022-08-20T10:09:24.389Z,15.54
2022-08-20T10:11:51.384Z,15.56
2022-08-20T10:14:18.251Z,15.56
2022-08-20T10:16:45.244Z,15.57
2022-08-20T10:19:12.068Z,15.57
2022-08-20T10:21:39.501Z,15.59
2022-08-20T10:24:06.565Z,15.59
2022-08-20T10:26:33.494Z,15.60
2022-08-20T10:29:00.397Z,15.60
2022-08-20T10:31:27.326Z,15.63
2022-08-20T10:33:54.191Z,15.66
2022-08-20T10:36:21.245Z,15.68
2022-08-20T10:38:49.126Z,15.71
2022-08-20T10:41:16.313Z,15.72
2022-08-20T10:43:43.164Z,15.72
2022-08-20T10:46:10.238Z,15.73
2022-08-20T10:48:37.640Z,15.75
2022-08-20T10:51:04.997Z,15.74
2022-08-20T10:53:32.511Z,15.76
2022-08-20T10:55:59.424Z,15.78
2022-08-20T10:58:27.273Z,15.81
2022-08-20T11:01:04.923Z,15.84
2022-08-20T11:03:31.917Z,15.84
2022-08-20T11:05:58.869Z,15.82
2022-08-20T11:08:33.506Z,15.82
2022-08-20T11:11:04.193Z,15.81
2022-08-20T11:13:31.993Z,15.81
2022-08-20T11:15:58.920Z,15.80
2022-08-20T11:18:26.001Z,15.81
2022-08-20T11:20:52.996Z,15.81
2022-08-20T11:23:20.106Z,15.82
2022-08-20T11:25:47.580Z,15.82
2022-08-20T11:28:15.426Z,15.83
2022-08-20T11:30:42.477Z,15.84
2022-08-20T11:33:09.365Z,15.82
2022-08-20T11:35:49.356Z,15.78
2022-08-20T11:38:17.908Z,15.82
2022-08-20T11:40:46.771Z,15.81
2022-08-20T11:43:16.371Z,15.84
2022-08-20T11:45:46.708Z,15.84
2022-08-20T11:48:13.918Z,15.84
2022-08-20T11:50:41.280Z,15.87
2022-08-20T11:53:08.368Z,15.89
2022-08-20T11:55:35.497Z,15.89
2022-08-20T11:58:02.793Z,15.92
2022-08-20T12:00:32.809Z,15.93
2022-08-20T12:03:05.508Z,15.97
2022-08-20T12:05:33.254Z,15.98
2022-08-20T12:08:04.480Z,16.00
2022-08-20T12:10:32.343Z,16.00
2022-08-20T12:12:59.360Z,16.03
2022-08-20T12:15:27.619Z,16.05
2022-08-20T12:17:55.185Z,16.10
2022-08-20T12:20:23.520Z,16.10
2022-08-20T12:22:50.956Z,16.14
2022-08-20T12:25:18.212Z,16.16
2022-08-20T12:27:46.191Z,16.18
2022-08-20T12:30:17.056Z,16.19
2022-08-20T12:32:44.789Z,16.18
2022-08-20T12:35:13.581Z,16.21
2022-08-20T12:37:41.358Z,16.22
2022-08-20T12:40:12.725Z,16.24
2022-08-20T12:42:39.921Z,16.22
2022-08-20T12:45:07.691Z,16.22
2022-08-20T12:47:38.470Z,16.22
2022-08-20T12:50:09.889Z,16.21
2022-08-20T12:52:37.989Z,16.20
2022-08-20T12:55:06.916Z,16.24
2022-08-20T12:57:49.935Z,16.26
2022-08-20T13:00:39.075Z,16.31
2022-08-20T13:03:12.073Z,16.36
2022-08-20T13:05:39.701Z,16.40
2022-08-20T13:08:11.599Z,16.41
2022-08-20T13:10:44.493Z,16.42
2022-08-20T13:13:20.113Z,16.44
2022-08-20T13:15:47.269Z,16.44
2022-08-20T13:18:14.131Z,16.48
2022-08-20T13:20:41.201Z,16.48
2022-08-20T13:23:08.049Z,16.48
2022-08-20T13:25:35.280Z,16.48
2022-08-20T13:28:04.776Z,16.46
2022-08-20T13:30:34.768Z,16.46
2022-08-20T13:33:02.090Z,16.46
2022-08-20T13:35:29.112Z,16.49
2022-08-20T13:37:56.092Z,16.51
2022-08-20T13:40:23.281Z,16.54
2022-08-20T13:42:50.279Z,16.59
2022-08-20T13:45:17.266Z,16.61
2022-08-20T13:47:44.392Z,16.65
2022-08-20T13:50:15.367Z,16.70
2022-08-20T13:52:42.955Z,16.72
2022-08-20T13:55:12.954Z,16.74
2022-08-20T13:57:41.038Z,16.77
2022-08-20T14:00:12.683Z,16.78
2022-08-20T14:02:41.243Z,16.76
2022-08-20T14:05:08.764Z,16.77
2022-08-20T14:07:37.385Z,16.79
2022-08-20T14:10:09.191Z,16.78
2022-08-20T14:12:37.086Z,16.79
2022-08-20T14:15:04.523Z,16.77
2022-08-20T14:17:37.271Z,16.76
2022-08-20T14:20:09.464Z,16.76
2022-08-20T14:22:37.830Z,16.78
2022-08-20T14:25:09.525Z,16.80
2022-08-20T14:27:37.326Z,16.85
2022-08-20T14:30:11.152Z,16.90
2022-08-20T14:32:38.149Z,16.92
2022-08-20T14:35:06.567Z,16.95
2022-08-20T14:37:37.991Z,16.98
2022-08-20T14:40:08.517Z,16.98
2022-08-20T14:42:36.109Z,17.01
2022-08-20T14:45:04.817Z,17.05
2022-08-20T14:47:38.124Z,17.06
2022-08-20T14:50:09.316Z,17.07
2022-08-20T14:52:36.884Z,17.06
2022-08-20T14:55:09.034Z,17.09
2022-08-20T14:57:36.344Z,17.11
2022-08-20T15:00:05.674Z,17.10
2022-08-20T15:02:32.609Z,17.09
2022-08-20T15:04:59.463Z,17.06
2022-08-20T15:07:31.230Z,17.07
2022-08-20T15:09:58.679Z,17.05
2022-08-20T15:12:25.528Z,17.04
2022-08-20T15:14:52.559Z,17.04
2022-08-20T15:17:21.836Z,17.03
2022-08-20T15:19:49.209Z,17.03
2022-08-20T15:22:17.210Z,17.02
2022-08-20T15:24:44.482Z,17.02
2022-08-20T15:27:22.868Z,17.01
2022-08-20T15:29:51.210Z,17.04
2022-08-20T15:32:19.496Z,17.05
2022-08-20T15:34:47.300Z,17.04
2022-08-20T15:37:23.472Z,17.06
2022-08-20T15:39:51.378Z,17.09
2022-08-20T15:42:20.263Z,17.07
2022-08-20T15:44:47.639Z,17.05
2022-08-20T15:47:37.090Z,17.07
2022-08-20T15:50:14.173Z,17.05
2022-08-20T15:52:45.240Z,17.02
2022-08-20T15:55:15.670Z,17.00
2022-08-20T15:57:58.607Z,17.00
2022-08-20T16:00:44.760Z,17.00
2022-08-20T16:03:43.994Z,17.01
2022-08-20T16:06:19.041Z,17.04
2022-08-20T16:09:21.414Z,17.03
2022-08-20T16:12:03.139Z,17.05
2022-08-20T16:14:36.712Z,17.06
2022-08-20T16:17:06.482Z,17.07
2022-08-20T16:20:10.285Z,17.05
2022-08-20T16:22:45.573Z,17.03
2022-08-20T16:25:14.926Z,17.02
2022-08-20T16:27:44.608Z,17.03
2022-08-20T16:30:16.577Z,17.06
2022-08-20T16:32:59.999Z,17.09
2022-08-20T16:35:30.407Z,17.11
2022-08-20T16:38:00.353Z,17.13
2022-08-20T16:40:34.932Z,17.13
2022-08-20T16:43:05.841Z,17.14
2022-08-20T16:45:51.013Z,17.14
2022-08-20T16:48:19.037Z,17.14
2022-08-20T16:50:51.239Z,17.10
2022-08-20T16:53:23.665Z,17.14
2022-08-20T16:55:51.817Z,17.13
2022-08-20T16:58:18.868Z,17.11
2022-08-20T17:00:46.005Z,17.09
2022-08-20T17:03:21.748Z,17.10
2022-08-20T17:06:00.649Z,17.11
2022-08-20T17:08:31.587Z,17.13
2022-08-20T17:11:12.198Z,17.11
2022-08-20T17:13:43.088Z,17.11
2022-08-20T17:16:15.954Z,17.09
2022-08-20T17:18:53.822Z,17.09
2022-08-20T17:21:31.911Z,17.08
2022-08-20T17:24:05.016Z,17.10
2022-08-20T17:26:35.198Z,17.08
2022-08-20T17:29:12.788Z,17.08
2022-08-20T17:31:47.191Z,17.10
2022-08-20T17:34:29.580Z,17.10
2022-08-20T17:37:07.478Z,17.09
2022-08-20T17:39:34.782Z,17.07
2022-08-20T17:42:09.048Z,17.05
2022-08-20T17:44:47.385Z,17.05
2022-08-20T17:47:23.491Z,17.05
2022-08-20T17:50:02.121Z,17.04
2022-08-20T17:52:43.890Z,17.03
2022-08-20T17:55:12.630Z,17.02
2022-08-20T17:57:44.499Z,17.04
2022-08-20T18:00:17.526Z,17.03
2022-08-20T18:02:44.880Z,17.01
2022-08-20T18:05:19.621Z,17.00
2022-08-20T18:08:06.796Z,16.98
2022-08-20T18:10:52.740Z,16.96
2022-08-20T18:13:24.265Z,16.94
2022-08-20T18:15:56.976Z,16.93
2022-08-20T18:18:57.138Z,16.91
2022-08-20T18:21:36.487Z,16.92
2022-08-20T18:24:08.692Z,16.91
2022-08-20T18:26:38.633Z,16.89
2022-08-20T18:29:13.768Z,16.89
2022-08-20T18:31:45.714Z,16.87
2022-08-20T18:34:15.849Z,16.87
2022-08-20T18:36:54.508Z,16.85
2022-08-20T18:39:30.305Z,16.84
2022-08-20T18:42:09.892Z,16.81
2022-08-20T18:44:41.179Z,16.82
2022-08-20T18:47:21.005Z,16.82
2022-08-20T18:50:05.387Z,16.84
2022-08-20T18:52:35.973Z,16.82
2022-08-20T18:55:08.856Z,16.78
2022-08-20T18:58:04.371Z,16.75
2022-08-20T19:00:37.155Z,16.73
2022-08-20T19:03:06.754Z,16.72
2022-08-20T19:05:44.767Z,16.73
2022-08-20T19:08:23.037Z,16.71
2022-08-20T19:11:05.850Z,16.69
2022-08-20T19:13:51.376Z,16.67
2022-08-20T19:16:41.914Z,16.65
2022-08-20T19:19:20.957Z,16.66
2022-08-20T19:21:48.738Z,16.66
2022-08-20T19:24:19.141Z,16.65
2022-08-20T19:26:53.852Z,16.64
2022-08-20T19:29:26.823Z,16.62
2022-08-20T19:32:02.013Z,16.62
2022-08-20T19:34:29.448Z,16.60
2022-08-20T19:37:27.864Z,16.58
2022-08-20T19:39:53.242Z,16.55
2022-08-20T19:42:29.355Z,16.56
2022-08-20T19:45:07.680Z,16.54
2022-08-20T19:47:40.652Z,16.52
2022-08-20T19:50:26.420Z,16.51
2022-08-20T19:53:33.168Z,16.49
2022-08-20T19:56:23.188Z,16.47
2022-08-20T19:59:09.047Z,16.46
2022-08-20T20:01:36.790Z,16.44
2022-08-20T20:04:08.206Z,16.42
2022-08-20T20:06:37.375Z,16.42
2022-08-20T20:09:13.599Z,16.41
2022-08-20T20:11:51.829Z,16.37
2022-08-20T20:14:22.954Z,16.36
2022-08-20T20:16:51.136Z,16.37
2022-08-20T20:19:27.754Z,16.35
2022-08-20T20:22:13.388Z,16.39
2022-08-20T20:24:56.956Z,16.37
2022-08-20T20:27:26.757Z,16.37
2022-08-20T20:30:30.382Z,16.36
2022-08-20T20:32:59.899Z,16.33
2022-08-20T20:35:35.165Z,16.32
2022-08-20T20:38:09.565Z,16.32
2022-08-20T20:40:45.099Z,16.31
2022-08-20T20:43:35.604Z,16.29
2022-08-20T20:46:24.079Z,16.28
2022-08-20T20:49:31.554Z,16.26
2022-08-20T20:52:18.782Z,16.27
2022-08-20T20:54:47.048Z,16.26
2022-08-20T20:57:16.944Z,16.25
2022-08-20T20:59:46.432Z,16.22
2022-08-20T21:02:13.537Z,16.20
2022-08-20T21:04:42.674Z,16.20
2022-08-20T21:07:13.493Z,16.19
2022-08-20T21:09:42.431Z,16.17
2022-08-20T21:12:11.481Z,16.16
2022-08-20T21:14:39.197Z,16.14
2022-08-20T21:17:08.570Z,16.19
2022-08-20T21:19:41.075Z,16.13
2022-08-20T21:22:12.370Z,16.12
2022-08-20T21:24:39.226Z,16.08
2022-08-20T21:27:07.214Z,16.08
2022-08-20T21:29:34.344Z,16.06
2022-08-20T21:32:01.289Z,16.06
2022-08-20T21:34:28.238Z,16.04
2022-08-20T21:36:56.377Z,16.03
2022-08-20T21:39:25.921Z,16.01
2022-08-20T21:42:02.889Z,16.00
2022-08-20T21:44:31.760Z,16.01
2022-08-20T21:47:00.971Z,16.01
2022-08-20T21:49:29.242Z,15.98
2022-08-20T21:51:56.431Z,15.96
2022-08-20T21:54:24.417Z,15.95
2022-08-20T21:57:08.281Z,15.96
2022-08-20T21:59:38.494Z,15.92
2022-08-20T22:02:06.331Z,15.90
2022-08-20T22:04:35.624Z,15.92
2022-08-20T22:07:03.904Z,15.90
2022-08-20T22:09:32.979Z,15.91
2022-08-20T22:12:03.996Z,15.90
2022-08-20T22:14:31.374Z,15.90
2022-08-20T22:16:59.037Z,15.88
2022-08-20T22:19:25.916Z,15.87
2022-08-20T22:21:54.913Z,15.87
2022-08-20T22:24:23.139Z,15.84
2022-08-20T22:26:49.995Z,15.83
2022-08-20T22:29:16.938Z,15.80
2022-08-20T22:31:44.811Z,15.77
2022-08-20T22:34:15.602Z,15.76
2022-08-20T22:36:42.965Z,15.77
2022-08-20T22:39:10.287Z,15.77
2022-08-20T22:41:37.937Z,15.77
2022-08-20T22:44:05.064Z,15.75
2022-08-20T22:46:42.466Z,15.75
2022-08-20T22:49:17.338Z,15.73
2022-08-20T22:51:44.568Z,15.74
2022-08-20T22:54:15.697Z,15.73
2022-08-20T22:56:42.685Z,15.72
2022-08-20T22:59:10.674Z,15.71
2022-08-20T23:01:38.103Z,15.67
2022-08-20T23:04:12.291Z,15.68
2022-08-20T23:06:39.227Z,15.69
2022-08-20T23:09:06.280Z,15.67
2022-08-20T23:11:33.238Z,15.68
2022-08-20T23:14:00.139Z,15.65
2022-08-20T23:16:27.108Z,15.61
2022-08-20T23:18:54.169Z,15.63
2022-08-20T23:21:21.158Z,15.62
2022-08-20T23:23:48.019Z,15.60
2022-08-20T23:26:20.460Z,15.60
2022-08-20T23:28:47.646Z,15.56
2022-08-20T23:31:14.863Z,15.56
2022-08-20T23:33:44.831Z,15.58
2022-08-20T23:36:15.257Z,15.56
2022-08-20T23:38:42.573Z,15.54
2022-08-20T23:41:09.565Z,15.53
2022-08-20T23:43:37.740Z,15.52
2022-08-20T23:46:06.842Z,15.52
2022-08-20T23:48:34.323Z,15.52
2022-08-20T23:51:01.626Z,15.49
2022-08-20T23:53:28.541Z,15.52
2022-08-20T23:55:55.405Z,15.48
2022-08-20T23:58:22.464Z,15.47
